createdAt,value
2019-03-29T00:04:00.988Z,16.70
2019-03-29T00:09:06.894Z,17.93
2019-03-29T00:14:09.988Z,18.30
2019-03-29T00:19:13.463Z,19.27
2019-03-29T00:24:17.366Z,18.80
2019-03-29T00:29:21.174Z,19.63
2019-03-29T00:34:24.811Z,20.37
2019-03-29T00:39:28.469Z,21.23
2019-03-29T00:44:31.454Z,19.90
2019-03-29T00:49:34.801Z,20.20
2019-03-29T00:54:38.641Z,19.37
2019-03-29T00:59:41.636Z,20.87
2019-03-29T01:04:44.739Z,20.77
2019-03-29T01:09:48.594Z,21.40
2019-03-29T01:14:51.547Z,21.90
2019-03-29T01:19:55.936Z,22.03
2019-03-29T01:25:00.436Z,23.57
2019-03-29T01:30:04.795Z,22.90
2019-03-29T01:35:09.341Z,23.20
2019-03-29T01:40:13.405Z,22.57
2019-03-29T01:45:16.540Z,21.67
2019-03-29T01:50:20.162Z,21.67
2019-03-29T01:55:23.326Z,22.50
2019-03-29T02:00:31.931Z,20.20
2019-03-29T02:05:35.268Z,20.27
2019-03-29T02:10:38.867Z,21.53
2019-03-29T02:15:42.475Z,19.63
2019-03-29T02:20:45.886Z,21.03
2019-03-29T02:25:49.422Z,20.60
2019-03-29T02:30:52.523Z,21.63
2019-03-29T02:35:55.526Z,22.43
2019-03-29T02:40:59.159Z,21.50
2019-03-29T02:46:02.851Z,22.87
2019-03-29T02:51:05.835Z,22.47
2019-03-29T02:56:09.292Z,24.23
2019-03-29T03:01:12.544Z,24.00
2019-03-29T03:06:15.639Z,24.90
2019-03-29T03:11:18.752Z,25.37
2019-03-29T03:16:22.933Z,24.77
2019-03-29T03:21:26.637Z,24.73
2019-03-29T03:26:29.712Z,25.67
2019-03-29T03:31:33.877Z,24.90
2019-03-29T03:36:36.896Z,24.70
2019-03-29T03:41:39.889Z,25.20
2019-03-29T03:46:42.891Z,25.97
2019-03-29T03:51:46.334Z,25.57
2019-03-29T03:56:52.430Z,25.87
2019-03-29T04:01:55.434Z,25.47
2019-03-29T04:06:58.527Z,27.23
2019-03-29T04:12:01.516Z,29.00
2019-03-29T04:17:04.477Z,29.07
2019-03-29T04:22:07.826Z,28.00
2019-03-29T04:27:11.916Z,27.73
2019-03-29T04:32:15.571Z,27.77
2019-03-29T04:37:18.624Z,28.87
2019-03-29T04:42:21.669Z,29.53
2019-03-29T04:47:25.289Z,27.93
2019-03-29T04:52:28.260Z,28.43
2019-03-29T04:57:31.915Z,29.37
2019-03-29T05:02:35.000Z,30.00
2019-03-29T05:07:38.861Z,29.27
2019-03-29T05:12:42.907Z,30.43
2019-03-29T05:17:45.902Z,28.37
2019-03-29T05:22:49.487Z,29.03
2019-03-29T05:27:52.508Z,30.57
2019-03-29T05:32:56.522Z,28.03
2019-03-29T05:37:59.605Z,27.80
2019-03-29T05:43:02.819Z,27.90
2019-03-29T05:48:06.150Z,27.40
2019-03-29T05:53:10.566Z,28.37
2019-03-29T05:58:13.636Z,28.30
2019-03-29T06:03:17.587Z,27.67
2019-03-29T06:08:20.581Z,27.13
2019-03-29T06:13:24.540Z,28.03
2019-03-29T06:18:28.303Z,28.47
2019-03-29T06:23:31.288Z,27.23
2019-03-29T06:28:34.283Z,27.43
2019-03-29T06:33:37.362Z,27.77
2019-03-29T06:38:43.480Z,28.13
2019-03-29T06:43:46.813Z,27.33
2019-03-29T06:48:50.806Z,28.13
2019-03-29T06:53:54.347Z,28.60
2019-03-29T06:58:58.392Z,29.70
2019-03-29T07:04:02.279Z,28.10
2019-03-29T07:09:07.242Z,32.67
2019-03-29T07:14:11.029Z,28.40
2019-03-29T07:19:14.022Z,29.03
2019-03-29T07:24:17.438Z,27.23
2019-03-29T07:29:21.487Z,28.23
2019-03-29T07:34:24.807Z,27.97
2019-03-29T07:39:28.206Z,28.43
2019-03-29T07:44:31.218Z,28.20
2019-03-29T07:49:34.215Z,26.87
2019-03-29T07:54:37.926Z,26.70
2019-03-29T07:59:40.980Z,26.50
2019-03-29T08:04:46.525Z,27.70
2019-03-29T08:09:50.324Z,28.30
2019-03-29T08:14:53.644Z,26.53
2019-03-29T08:20:35.622Z,25.87
2019-03-29T08:25:03.231Z,25.07
2019-03-29T08:30:07.414Z,24.77
2019-03-29T08:35:10.588Z,24.93
2019-03-29T08:40:14.190Z,24.43
2019-03-29T08:45:17.209Z,23.37
2019-03-29T08:50:20.302Z,22.03
2019-03-29T08:55:23.328Z,22.47
2019-03-29T09:00:33.239Z,24.67
2019-03-29T09:05:39.183Z,23.13
2019-03-29T09:10:42.429Z,21.50
2019-03-29T09:15:45.647Z,21.00
2019-03-29T09:20:48.738Z,20.67
2019-03-29T09:25:53.683Z,21.13
2019-03-29T09:30:57.018Z,18.80
2019-03-29T09:36:00.143Z,19.80
2019-03-29T09:41:03.245Z,20.17
2019-03-29T09:46:07.301Z,19.90
2019-03-29T09:51:10.484Z,21.10
2019-03-29T09:56:14.649Z,17.03
2019-03-29T10:01:20.633Z,16.97
2019-03-29T10:06:22.903Z,16.17
2019-03-29T10:11:26.284Z,16.57
2019-03-29T10:16:30.187Z,14.40
2019-03-29T10:21:34.244Z,13.60
2019-03-29T10:26:38.147Z,15.23
2019-03-29T10:31:41.161Z,14.27
2019-03-29T10:36:44.238Z,13.47
2019-03-29T10:41:47.981Z,12.83
2019-03-29T10:46:51.785Z,9.90
2019-03-29T10:51:55.198Z,7.53
2019-03-29T10:56:58.225Z,6.00
2019-03-29T11:02:01.821Z,7.53
2019-03-29T11:07:04.941Z,5.80
2019-03-29T11:12:08.339Z,4.40
2019-03-29T11:17:12.613Z,5.70
2019-03-29T11:22:16.323Z,5.80
2019-03-29T11:27:22.463Z,5.87
2019-03-29T11:32:25.858Z,5.60
2019-03-29T11:37:30.637Z,5.07
2019-03-29T11:42:33.704Z,5.50
2019-03-29T11:47:36.785Z,5.47
2019-03-29T11:52:40.120Z,4.77
2019-03-29T11:57:44.127Z,5.40
2019-03-29T12:02:47.383Z,5.90
2019-03-29T12:07:50.415Z,5.67
2019-03-29T12:12:53.509Z,6.07
2019-03-29T12:17:56.635Z,5.67
2019-03-29T12:22:59.831Z,5.60
2019-03-29T12:28:03.895Z,5.60
2019-03-29T12:33:07.065Z,6.13
2019-03-29T12:38:10.300Z,5.50
2019-03-29T12:43:13.844Z,5.83
2019-03-29T12:48:17.738Z,5.47
2019-03-29T12:53:21.615Z,5.40
2019-03-29T12:58:25.281Z,5.50
2019-03-29T13:03:29.015Z,4.30
2019-03-29T13:08:32.772Z,5.70
2019-03-29T13:13:37.053Z,5.10
2019-03-29T13:18:41.173Z,5.77
2019-03-29T13:23:44.491Z,4.93
2019-03-29T13:28:48.200Z,4.80
2019-03-29T13:33:51.814Z,4.77
2019-03-29T13:38:55.379Z,5.00
2019-03-29T13:43:58.541Z,4.93
2019-03-29T13:49:01.647Z,5.43
2019-03-29T13:54:04.853Z,4.70
2019-03-29T13:59:07.843Z,4.80
2019-03-29T14:04:11.584Z,5.00
2019-03-29T14:09:15.610Z,5.10
2019-03-29T14:14:18.945Z,5.73
2019-03-29T14:19:21.994Z,6.20
2019-03-29T14:24:25.658Z,7.97
2019-03-29T14:29:29.257Z,6.73
2019-03-29T14:34:33.349Z,6.43
2019-03-29T14:39:37.134Z,6.37
2019-03-29T14:44:51.808Z,7.37
2019-03-29T14:49:45.973Z,6.77
2019-03-29T14:54:49.084Z,6.87
2019-03-29T14:59:52.335Z,6.63
2019-03-29T15:04:55.516Z,7.07
2019-03-29T15:09:59.995Z,6.87
2019-03-29T15:15:06.677Z,7.53
2019-03-29T15:20:10.645Z,7.00
2019-03-29T15:25:13.982Z,6.57
2019-03-29T15:30:17.294Z,7.33
2019-03-29T15:35:20.993Z,6.83
2019-03-29T15:40:24.346Z,7.27
2019-03-29T15:45:27.387Z,7.30
2019-03-29T15:50:30.431Z,7.30
2019-03-29T15:55:33.720Z,7.27
2019-03-29T16:00:37.702Z,7.27
2019-03-29T16:05:40.714Z,7.13
2019-03-29T16:10:44.383Z,7.57
2019-03-29T16:15:47.689Z,6.90
2019-03-29T16:20:51.118Z,6.07
2019-03-29T16:25:54.245Z,6.33
2019-03-29T16:30:58.095Z,6.60
2019-03-29T16:36:01.526Z,6.73
2019-03-29T16:41:05.284Z,5.80
2019-03-29T16:46:09.600Z,6.23
2019-03-29T16:51:13.033Z,6.60
2019-03-29T16:56:16.620Z,6.13
2019-03-29T17:01:20.384Z,6.97
2019-03-29T17:06:24.020Z,6.20
2019-03-29T17:11:27.380Z,7.53
2019-03-29T17:16:30.907Z,6.17
2019-03-29T17:21:34.142Z,6.57
2019-03-29T17:26:37.344Z,7.30
2019-03-29T17:31:40.941Z,7.13
2019-03-29T17:36:44.621Z,7.93
2019-03-29T17:41:47.905Z,7.70
2019-03-29T17:46:52.877Z,7.33
2019-03-29T17:51:56.566Z,8.13
2019-03-29T17:56:59.951Z,8.80
2019-03-29T18:02:09.128Z,9.23
2019-03-29T18:07:08.203Z,8.50
2019-03-29T18:12:11.585Z,7.93
2019-03-29T18:17:15.454Z,8.20
2019-03-29T18:22:18.758Z,9.03
2019-03-29T18:27:22.039Z,8.63
2019-03-29T18:32:25.336Z,8.50
2019-03-29T18:37:29.770Z,8.60
2019-03-29T18:42:33.644Z,9.07
2019-03-29T18:47:37.178Z,9.07
2019-03-29T18:52:42.766Z,8.57
2019-03-29T18:57:45.121Z,9.50
2019-03-29T19:02:48.719Z,8.93
2019-03-29T19:07:52.259Z,8.73
2019-03-29T19:12:55.365Z,9.80
2019-03-29T19:17:58.391Z,9.80
2019-03-29T19:23:02.074Z,9.87
2019-03-29T19:28:05.129Z,9.33
2019-03-29T19:33:08.407Z,10.63
2019-03-29T19:38:11.392Z,11.27
2019-03-29T19:43:14.719Z,11.30
2019-03-29T19:48:17.738Z,11.20
2019-03-29T19:53:21.605Z,11.50
2019-03-29T19:58:24.876Z,11.07
2019-03-29T20:03:28.210Z,11.73
2019-03-29T20:08:31.980Z,13.03
2019-03-29T20:13:35.602Z,13.10
2019-03-29T20:18:38.568Z,12.80
2019-03-29T20:23:41.699Z,12.67
2019-03-29T20:28:44.748Z,12.60
2019-03-29T20:33:48.020Z,12.03
2019-03-29T20:38:52.058Z,10.27
2019-03-29T20:43:55.960Z,11.60
2019-03-29T20:48:58.940Z,10.57
2019-03-29T20:54:02.346Z,11.90
2019-03-29T20:59:05.707Z,12.07
2019-03-29T21:04:09.000Z,12.93
2019-03-29T21:09:12.936Z,13.70
2019-03-29T21:14:15.971Z,12.10
2019-03-29T21:19:20.215Z,12.67
2019-03-29T21:24:23.695Z,12.77
2019-03-29T21:29:27.315Z,10.53
2019-03-29T21:34:30.402Z,10.77
2019-03-29T21:39:34.024Z,9.13
2019-03-29T21:44:37.069Z,9.67
2019-03-29T21:49:40.989Z,9.80
2019-03-29T21:54:44.490Z,11.20
2019-03-29T21:59:47.992Z,11.27
2019-03-29T22:04:51.596Z,10.80
2019-03-29T22:09:55.738Z,9.80
2019-03-29T22:14:58.912Z,9.57
2019-03-29T22:20:04.313Z,9.60
2019-03-29T22:25:08.690Z,10.53
2019-03-29T22:30:15.730Z,11.13
2019-03-29T22:35:19.365Z,10.73
2019-03-29T22:40:25.385Z,10.97
2019-03-29T22:45:29.579Z,12.23
2019-03-29T22:50:33.295Z,9.90
2019-03-29T22:55:36.799Z,9.73
2019-03-29T23:00:46.959Z,10.07
2019-03-29T23:05:52.021Z,9.23
2019-03-29T23:10:55.432Z,8.83
2019-03-29T23:16:00.524Z,9.40
2019-03-29T23:21:04.164Z,8.90
2019-03-29T23:26:07.897Z,9.87
2019-03-29T23:31:11.008Z,15.20
2019-03-29T23:36:13.965Z,11.03
2019-03-29T23:41:17.408Z,10.40
2019-03-29T23:46:20.485Z,9.50
2019-03-29T23:51:24.370Z,10.20
2019-03-29T23:56:28.202Z,10.13
